Heiskell, TN (37754)

4:43 PM EST on December 21, 2014 (GMT -0500)
Carriage Hill | Change Station
CLOSE
Current Station
Personal Weather Station
Location: Clinton, TN
Elevation: 906 ft
Nearby Weather Stations

Elev 906 ft 36.12 °N, 84.12 °W | Updated 12 minutes ago

Mostly Cloudy
Mostly Cloudy
50.5 °F
Feels Like 50.5 °F
N
1.1
Wind Variable Wind from WSW

Today
High -- | Low -- °F
--% Chance of Precip.
Yesterday
High -- | Low -- °F
Precip. -- in
7:43 AM 5:25 PM
Waning Crescent, 0% visible
Pressure 30.16 in
Visibility 10.0 miles
Clouds Overcast 3900 ft
Dew Point 37 °F
Humidity 60%
Rainfall 0.00 in
Snow Depth Not available.
UV 0 out of 12
Pollen .10 out of 12
Air Quality Not available.
Flu Activity Not available.
METAR KOQT 212053Z AUTO 00000KT 10SM OVC039 10/01 A3012 RMK AO2 SLP211 T01000006 56023

More Conditions Fewer Conditions

Pressure 30.16 in
Visibility 10.0 miles
Clouds Overcast 3900 ft
Dew Point 37 °F
Humidity 60%
Rainfall 0.00 in
Snow Depth Not available.
UV 0 out of 12
Pollen .10 out of 12
Air Quality Not available.
Flu Activity Not available.
METAR KOQT 212053Z AUTO 00000KT 10SM OVC039 10/01 A3012 RMK AO2 SLP211 T01000006 56023

More Conditions Fewer Conditions

10-Day Weather Forecast

Almanac

Astronomy

Dec. 21, 2014 Rise Set
Actual Time
Civil Twilight
Nautical Twilight
Astronomical Twilight
Moon
Length of Visible Light
Length of Day
Tomorrow will be .
, % of the Moon is Illuminated

Today's Extremes

State Highs State Lows

Community

WunderPhotos

Upload Photos

1,779,486 photos uploaded!

WunderBlogs® & News

Nearby

Air Quality

  Air Quality AQ Index Pollutant
Not available.

Snow Depth

Station Depth Elevation

Earthquake Activity

City Distance Mag. Time & Date
Minimum magnitude displayed is 2.5.

Coastal Water Temperatures

Place Temperature

Nearby Weather Stations